sensor_id;sensor_type;location;lat;lon;timestamp;P1;durP1;ratioP1;P2;durP2;ratioP2
56242;SDS011;42155;53.096;23.226;2023-02-04T00:01:26;6.43;;;2.17;;
56242;SDS011;42155;53.096;23.226;2023-02-04T00:03:27;5.70;;;2.42;;
56242;SDS011;42155;53.096;23.226;2023-02-04T00:05:27;4.53;;;2.40;;
56242;SDS011;42155;53.096;23.226;2023-02-04T00:07:27;5.30;;;2.47;;
56242;SDS011;42155;53.096;23.226;2023-02-04T00:09:28;4.70;;;2.30;;
56242;SDS011;42155;53.096;23.226;2023-02-04T00:11:28;3.63;;;2.38;;
56242;SDS011;42155;53.096;23.226;2023-02-04T00:13:28;5.05;;;2.83;;
56242;SDS011;42155;53.096;23.226;2023-02-04T00:15:29;3.20;;;2.28;;
56242;SDS011;42155;53.096;23.226;2023-02-04T00:17:29;4.10;;;2.47;;
56242;SDS011;42155;53.096;23.226;2023-02-04T00:19:30;3.53;;;2.20;;
56242;SDS011;42155;53.096;23.226;2023-02-04T00:21:30;5.20;;;2.38;;
56242;SDS011;42155;53.096;23.226;2023-02-04T00:23:31;3.75;;;2.50;;
56242;SDS011;42155;53.096;23.226;2023-02-04T00:25:31;4.03;;;2.58;;
56242;SDS011;42155;53.096;23.226;2023-02-04T00:27:31;5.03;;;2.45;;
56242;SDS011;42155;53.096;23.226;2023-02-04T00:29:32;3.80;;;2.22;;
56242;SDS011;42155;53.096;23.226;2023-02-04T00:31:32;4.72;;;2.30;;
56242;SDS011;42155;53.096;23.226;2023-02-04T00:33:32;4.57;;;2.40;;
56242;SDS011;42155;53.096;23.226;2023-02-04T00:35:33;3.67;;;2.30;;
56242;SDS011;42155;53.096;23.226;2023-02-04T00:37:33;4.20;;;2.20;;
56242;SDS011;42155;53.096;23.226;2023-02-04T00:39:33;4.75;;;2.22;;
56242;SDS011;42155;53.096;23.226;2023-02-04T00:41:34;5.32;;;2.85;;
56242;SDS011;42155;53.096;23.226;2023-02-04T00:43:34;6.60;;;3.15;;
56242;SDS011;42155;53.096;23.226;2023-02-04T00:45:34;5.50;;;3.03;;
56242;SDS011;42155;53.096;23.226;2023-02-04T00:47:35;7.10;;;2.60;;
56242;SDS011;42155;53.096;23.226;2023-02-04T00:49:35;4.88;;;2.42;;
56242;SDS011;42155;53.096;23.226;2023-02-04T00:51:38;6.65;;;2.83;;
56242;SDS011;42155;53.096;23.226;2023-02-04T00:53:40;4.18;;;2.42;;
56242;SDS011;42155;53.096;23.226;2023-02-04T00:55:41;6.15;;;2.80;;
56242;SDS011;42155;53.096;23.226;2023-02-04T00:57:41;4.38;;;2.15;;
56242;SDS011;42155;53.096;23.226;2023-02-04T00:59:42;3.50;;;1.88;;
56242;SDS011;42155;53.096;23.226;2023-02-04T01:01:42;6.00;;;2.60;;
56242;SDS011;42155;53.096;23.226;2023-02-04T01:03:43;3.33;;;2.08;;
56242;SDS011;42155;53.096;23.226;2023-02-04T01:05:43;5.30;;;2.78;;
56242;SDS011;42155;53.096;23.226;2023-02-04T01:07:43;5.90;;;2.28;;
56242;SDS011;42155;53.096;23.226;2023-02-04T01:09:44;5.60;;;2.50;;
56242;SDS011;42155;53.096;23.226;2023-02-04T01:11:44;3.85;;;2.45;;
56242;SDS011;42155;53.096;23.226;2023-02-04T01:13:44;4.97;;;2.53;;
56242;SDS011;42155;53.096;23.226;2023-02-04T01:15:45;4.80;;;2.72;;
56242;SDS011;42155;53.096;23.226;2023-02-04T01:17:45;6.15;;;2.42;;
56242;SDS011;42155;53.096;23.226;2023-02-04T01:19:46;3.72;;;2.40;;
56242;SDS011;42155;53.096;23.226;2023-02-04T01:21:46;6.75;;;2.92;;
56242;SDS011;42155;53.096;23.226;2023-02-04T01:23:47;4.63;;;2.38;;
56242;SDS011;42155;53.096;23.226;2023-02-04T01:25:47;5.70;;;2.60;;
56242;SDS011;42155;53.096;23.226;2023-02-04T01:27:47;5.00;;;2.70;;
56242;SDS011;42155;53.096;23.226;2023-02-04T01:29:48;6.50;;;2.33;;
56242;SDS011;42155;53.096;23.226;2023-02-04T01:31:48;7.20;;;2.58;;
56242;SDS011;42155;53.096;23.226;2023-02-04T01:33:49;4.13;;;2.38;;
56242;SDS011;42155;53.096;23.226;2023-02-04T01:35:49;6.25;;;2.33;;
56242;SDS011;42155;53.096;23.226;2023-02-04T01:37:49;6.53;;;2.75;;
56242;SDS011;42155;53.096;23.226;2023-02-04T01:39:50;6.55;;;2.67;;
56242;SDS011;42155;53.096;23.226;2023-02-04T01:41:50;6.57;;;3.15;;
56242;SDS011;42155;53.096;23.226;2023-02-04T01:43:50;6.18;;;2.80;;
56242;SDS011;42155;53.096;23.226;2023-02-04T01:45:51;6.05;;;2.67;;
56242;SDS011;42155;53.096;23.226;2023-02-04T01:47:51;4.38;;;2.67;;
56242;SDS011;42155;53.096;23.226;2023-02-04T01:49:52;6.65;;;2.60;;
56242;SDS011;42155;53.096;23.226;2023-02-04T01:51:53;5.60;;;3.08;;
56242;SDS011;42155;53.096;23.226;2023-02-04T01:53:54;7.18;;;2.80;;
56242;SDS011;42155;53.096;23.226;2023-02-04T01:55:55;5.78;;;2.75;;
56242;SDS011;42155;53.096;23.226;2023-02-04T01:57:55;3.80;;;2.50;;
56242;SDS011;42155;53.096;23.226;2023-02-04T01:59:55;5.45;;;2.85;;
56242;SDS011;42155;53.096;23.226;2023-02-04T02:01:56;7.93;;;3.35;;
56242;SDS011;42155;53.096;23.226;2023-02-04T02:03:56;6.13;;;2.72;;
56242;SDS011;42155;53.096;23.226;2023-02-04T02:05:56;5.40;;;2.90;;
56242;SDS011;42155;53.096;23.226;2023-02-04T02:07:57;7.43;;;2.63;;
56242;SDS011;42155;53.096;23.226;2023-02-04T02:10:01;6.53;;;2.85;;
56242;SDS011;42155;53.096;23.226;2023-02-04T02:12:03;8.27;;;3.25;;
56242;SDS011;42155;53.096;23.226;2023-02-04T02:14:04;6.90;;;3.03;;
56242;SDS011;42155;53.096;23.226;2023-02-04T02:16:04;5.63;;;3.05;;
56242;SDS011;42155;53.096;23.226;2023-02-04T02:18:05;6.20;;;3.00;;
56242;SDS011;42155;53.096;23.226;2023-02-04T02:20:07;7.00;;;3.28;;
56242;SDS011;42155;53.096;23.226;2023-02-04T02:22:15;6.00;;;3.40;;
56242;SDS011;42155;53.096;23.226;2023-02-04T02:24:29;8.45;;;3.65;;
56242;SDS011;42155;53.096;23.226;2023-02-04T02:26:31;5.57;;;2.85;;
56242;SDS011;42155;53.096;23.226;2023-02-04T02:28:31;6.97;;;3.35;;
56242;SDS011;42155;53.096;23.226;2023-02-04T02:30:31;8.35;;;3.03;;
56242;SDS011;42155;53.096;23.226;2023-02-04T02:32:32;8.48;;;3.10;;
56242;SDS011;42155;53.096;23.226;2023-02-04T02:34:33;8.55;;;3.22;;
56242;SDS011;42155;53.096;23.226;2023-02-04T02:36:34;5.38;;;2.95;;
56242;SDS011;42155;53.096;23.226;2023-02-04T02:38:34;5.40;;;3.08;;
56242;SDS011;42155;53.096;23.226;2023-02-04T02:40:35;10.80;;;3.42;;
56242;SDS011;42155;53.096;23.226;2023-02-04T02:42:36;9.55;;;3.65;;
56242;SDS011;42155;53.096;23.226;2023-02-04T02:44:36;6.30;;;3.42;;
56242;SDS011;42155;53.096;23.226;2023-02-04T02:46:37;5.95;;;3.35;;
56242;SDS011;42155;53.096;23.226;2023-02-04T02:48:37;6.05;;;3.28;;
56242;SDS011;42155;53.096;23.226;2023-02-04T02:50:38;9.18;;;3.83;;
56242;SDS011;42155;53.096;23.226;2023-02-04T02:52:38;8.30;;;3.65;;
56242;SDS011;42155;53.096;23.226;2023-02-04T02:54:39;7.25;;;4.03;;
56242;SDS011;42155;53.096;23.226;2023-02-04T02:56:40;9.60;;;3.75;;
56242;SDS011;42155;53.096;23.226;2023-02-04T02:58:40;7.35;;;3.90;;
56242;SDS011;42155;53.096;23.226;2023-02-04T03:00:41;9.15;;;3.80;;
56242;SDS011;42155;53.096;23.226;2023-02-04T03:02:41;7.95;;;4.15;;
56242;SDS011;42155;53.096;23.226;2023-02-04T03:04:44;7.55;;;4.18;;
56242;SDS011;42155;53.096;23.226;2023-02-04T03:06:49;9.98;;;4.20;;
56242;SDS011;42155;53.096;23.226;2023-02-04T03:08:51;10.55;;;4.55;;
56242;SDS011;42155;53.096;23.226;2023-02-04T03:10:53;9.63;;;4.10;;
56242;SDS011;42155;53.096;23.226;2023-02-04T03:12:53;10.05;;;4.68;;
56242;SDS011;42155;53.096;23.226;2023-02-04T03:14:54;11.40;;;4.70;;
56242;SDS011;42155;53.096;23.226;2023-02-04T03:16:54;8.90;;;4.57;;
56242;SDS011;42155;53.096;23.226;2023-02-04T03:18:55;10.40;;;4.45;;
56242;SDS011;42155;53.096;23.226;2023-02-04T03:20:55;10.20;;;4.55;;
56242;SDS011;42155;53.096;23.226;2023-02-04T03:22:57;12.05;;;4.72;;
56242;SDS011;42155;53.096;23.226;2023-02-04T03:24:57;7.68;;;4.30;;
56242;SDS011;42155;53.096;23.226;2023-02-04T03:26:57;7.80;;;4.10;;
56242;SDS011;42155;53.096;23.226;2023-02-04T03:28:58;8.20;;;4.22;;
56242;SDS011;42155;53.096;23.226;2023-02-04T03:30:59;8.93;;;4.07;;
56242;SDS011;42155;53.096;23.226;2023-02-04T03:32:59;10.30;;;3.67;;
56242;SDS011;42155;53.096;23.226;2023-02-04T03:34:59;8.38;;;4.53;;
56242;SDS011;42155;53.096;23.226;2023-02-04T03:37:00;8.90;;;4.68;;
56242;SDS011;42155;53.096;23.226;2023-02-04T03:39:00;7.28;;;3.80;;
56242;SDS011;42155;53.096;23.226;2023-02-04T03:41:01;9.35;;;4.00;;
56242;SDS011;42155;53.096;23.226;2023-02-04T03:43:01;8.02;;;3.88;;
56242;SDS011;42155;53.096;23.226;2023-02-04T03:45:02;14.95;;;5.28;;
56242;SDS011;42155;53.096;23.226;2023-02-04T03:47:02;7.85;;;3.63;;
56242;SDS011;42155;53.096;23.226;2023-02-04T03:49:03;10.80;;;4.40;;
56242;SDS011;42155;53.096;23.226;2023-02-04T03:51:03;8.52;;;3.58;;
56242;SDS011;42155;53.096;23.226;2023-02-04T03:53:03;9.07;;;3.72;;
56242;SDS011;42155;53.096;23.226;2023-02-04T03:55:04;8.98;;;3.70;;
56242;SDS011;42155;53.096;23.226;2023-02-04T03:57:04;6.93;;;3.00;;
56242;SDS011;42155;53.096;23.226;2023-02-04T03:59:05;5.72;;;2.95;;
56242;SDS011;42155;53.096;23.226;2023-02-04T04:01:05;7.03;;;3.40;;
56242;SDS011;42155;53.096;23.226;2023-02-04T04:03:05;7.45;;;3.25;;
56242;SDS011;42155;53.096;23.226;2023-02-04T04:05:06;7.40;;;3.65;;
56242;SDS011;42155;53.096;23.226;2023-02-04T04:07:07;7.18;;;3.55;;
56242;SDS011;42155;53.096;23.226;2023-02-04T04:09:08;8.15;;;3.40;;
56242;SDS011;42155;53.096;23.226;2023-02-04T04:11:08;7.15;;;3.00;;
56242;SDS011;42155;53.096;23.226;2023-02-04T04:13:08;8.10;;;3.55;;
56242;SDS011;42155;53.096;23.226;2023-02-04T04:15:09;8.52;;;3.10;;
56242;SDS011;42155;53.096;23.226;2023-02-04T04:17:09;5.82;;;2.80;;
56242;SDS011;42155;53.096;23.226;2023-02-04T04:19:10;14.32;;;3.88;;
56242;SDS011;42155;53.096;23.226;2023-02-04T04:21:10;7.68;;;3.08;;
56242;SDS011;42155;53.096;23.226;2023-02-04T04:23:10;12.57;;;3.55;;
56242;SDS011;42155;53.096;23.226;2023-02-04T04:25:11;9.55;;;2.80;;
56242;SDS011;42155;53.096;23.226;2023-02-04T04:27:11;6.68;;;2.85;;
56242;SDS011;42155;53.096;23.226;2023-02-04T04:29:11;8.60;;;3.28;;
56242;SDS011;42155;53.096;23.226;2023-02-04T04:31:12;4.57;;;2.33;;
56242;SDS011;42155;53.096;23.226;2023-02-04T04:33:12;5.82;;;3.00;;
56242;SDS011;42155;53.096;23.226;2023-02-04T04:35:13;5.43;;;2.97;;
56242;SDS011;42155;53.096;23.226;2023-02-04T04:37:13;6.47;;;3.00;;
56242;SDS011;42155;53.096;23.226;2023-02-04T04:39:13;7.15;;;3.10;;
56242;SDS011;42155;53.096;23.226;2023-02-04T04:41:14;6.07;;;2.55;;
56242;SDS011;42155;53.096;23.226;2023-02-04T04:43:14;8.05;;;3.13;;
56242;SDS011;42155;53.096;23.226;2023-02-04T04:45:14;6.70;;;3.10;;
56242;SDS011;42155;53.096;23.226;2023-02-04T04:47:15;6.22;;;3.15;;
56242;SDS011;42155;53.096;23.226;2023-02-04T04:49:15;5.47;;;3.08;;
56242;SDS011;42155;53.096;23.226;2023-02-04T04:51:15;7.72;;;3.42;;
56242;SDS011;42155;53.096;23.226;2023-02-04T04:53:16;5.97;;;2.20;;
56242;SDS011;42155;53.096;23.226;2023-02-04T04:55:16;5.63;;;2.97;;
56242;SDS011;42155;53.096;23.226;2023-02-04T04:57:16;4.95;;;2.80;;
56242;SDS011;42155;53.096;23.226;2023-02-04T04:59:17;5.45;;;2.38;;
56242;SDS011;42155;53.096;23.226;2023-02-04T05:01:17;3.72;;;2.38;;
56242;SDS011;42155;53.096;23.226;2023-02-04T05:03:17;4.50;;;2.13;;
56242;SDS011;42155;53.096;23.226;2023-02-04T05:05:18;4.30;;;2.47;;
56242;SDS011;42155;53.096;23.226;2023-02-04T05:07:18;3.80;;;1.98;;
56242;SDS011;42155;53.096;23.226;2023-02-04T05:09:18;3.78;;;2.20;;
56242;SDS011;42155;53.096;23.226;2023-02-04T05:11:19;4.50;;;2.30;;
56242;SDS011;42155;53.096;23.226;2023-02-04T05:13:20;5.00;;;2.40;;
56242;SDS011;42155;53.096;23.226;2023-02-04T05:15:20;3.75;;;2.03;;
56242;SDS011;42155;53.096;23.226;2023-02-04T05:17:21;7.35;;;2.83;;
56242;SDS011;42155;53.096;23.226;2023-02-04T05:19:21;6.13;;;2.53;;
56242;SDS011;42155;53.096;23.226;2023-02-04T05:21:21;5.30;;;2.20;;
56242;SDS011;42155;53.096;23.226;2023-02-04T05:23:22;4.22;;;1.92;;
56242;SDS011;42155;53.096;23.226;2023-02-04T05:25:22;8.02;;;2.33;;
56242;SDS011;42155;53.096;23.226;2023-02-04T05:27:22;4.82;;;2.10;;
56242;SDS011;42155;53.096;23.226;2023-02-04T05:29:23;3.05;;;1.60;;
56242;SDS011;42155;53.096;23.226;2023-02-04T05:31:23;2.63;;;1.77;;
56242;SDS011;42155;53.096;23.226;2023-02-04T05:33:23;5.28;;;1.85;;
56242;SDS011;42155;53.096;23.226;2023-02-04T05:35:24;3.63;;;1.58;;
56242;SDS011;42155;53.096;23.226;2023-02-04T05:37:24;3.97;;;2.08;;
56242;SDS011;42155;53.096;23.226;2023-02-04T05:39:24;2.58;;;1.25;;
56242;SDS011;42155;53.096;23.226;2023-02-04T05:41:25;4.88;;;1.38;;
56242;SDS011;42155;53.096;23.226;2023-02-04T05:43:25;2.67;;;1.60;;
56242;SDS011;42155;53.096;23.226;2023-02-04T05:45:25;4.25;;;1.73;;
56242;SDS011;42155;53.096;23.226;2023-02-04T05:47:26;3.10;;;1.80;;
56242;SDS011;42155;53.096;23.226;2023-02-04T05:49:26;3.47;;;1.73;;
56242;SDS011;42155;53.096;23.226;2023-02-04T05:51:26;4.00;;;1.90;;
56242;SDS011;42155;53.096;23.226;2023-02-04T05:53:27;5.10;;;1.90;;
56242;SDS011;42155;53.096;23.226;2023-02-04T05:55:27;3.75;;;1.73;;
56242;SDS011;42155;53.096;23.226;2023-02-04T05:57:28;4.30;;;2.00;;
56242;SDS011;42155;53.096;23.226;2023-02-04T05:59:28;6.03;;;2.60;;
56242;SDS011;42155;53.096;23.226;2023-02-04T06:01:28;6.63;;;2.53;;
56242;SDS011;42155;53.096;23.226;2023-02-04T06:03:29;7.25;;;2.83;;
56242;SDS011;42155;53.096;23.226;2023-02-04T06:05:29;5.95;;;2.47;;
56242;SDS011;42155;53.096;23.226;2023-02-04T06:07:30;4.65;;;2.42;;
56242;SDS011;42155;53.096;23.226;2023-02-04T06:09:31;4.90;;;2.25;;
56242;SDS011;42155;53.096;23.226;2023-02-04T06:11:31;6.50;;;2.28;;
56242;SDS011;42155;53.096;23.226;2023-02-04T06:13:31;6.53;;;1.90;;
56242;SDS011;42155;53.096;23.226;2023-02-04T06:15:32;4.47;;;2.05;;
56242;SDS011;42155;53.096;23.226;2023-02-04T06:17:32;4.85;;;2.40;;
56242;SDS011;42155;53.096;23.226;2023-02-04T06:19:32;5.22;;;1.95;;
56242;SDS011;42155;53.096;23.226;2023-02-04T06:21:33;5.60;;;2.65;;
56242;SDS011;42155;53.096;23.226;2023-02-04T06:23:33;7.32;;;2.72;;
56242;SDS011;42155;53.096;23.226;2023-02-04T06:25:33;5.10;;;2.10;;
56242;SDS011;42155;53.096;23.226;2023-02-04T06:27:34;4.20;;;1.83;;
56242;SDS011;42155;53.096;23.226;2023-02-04T06:29:34;3.22;;;1.70;;
56242;SDS011;42155;53.096;23.226;2023-02-04T06:31:34;3.17;;;1.75;;
56242;SDS011;42155;53.096;23.226;2023-02-04T06:33:35;5.78;;;2.40;;
56242;SDS011;42155;53.096;23.226;2023-02-04T06:35:35;3.22;;;1.80;;
56242;SDS011;42155;53.096;23.226;2023-02-04T06:37:36;5.03;;;2.30;;
56242;SDS011;42155;53.096;23.226;2023-02-04T06:39:36;8.00;;;2.60;;
56242;SDS011;42155;53.096;23.226;2023-02-04T06:41:37;6.25;;;3.05;;
56242;SDS011;42155;53.096;23.226;2023-02-04T06:43:37;6.75;;;3.30;;
56242;SDS011;42155;53.096;23.226;2023-02-04T06:45:37;6.18;;;2.97;;
56242;SDS011;42155;53.096;23.226;2023-02-04T06:47:38;7.32;;;2.47;;
56242;SDS011;42155;53.096;23.226;2023-02-04T06:49:38;6.97;;;2.92;;
56242;SDS011;42155;53.096;23.226;2023-02-04T06:51:38;6.88;;;3.13;;
56242;SDS011;42155;53.096;23.226;2023-02-04T06:53:39;8.75;;;3.38;;
56242;SDS011;42155;53.096;23.226;2023-02-04T06:55:39;8.15;;;3.83;;
56242;SDS011;42155;53.096;23.226;2023-02-04T06:57:39;8.23;;;3.75;;
56242;SDS011;42155;53.096;23.226;2023-02-04T06:59:40;11.10;;;3.83;;
56242;SDS011;42155;53.096;23.226;2023-02-04T07:01:40;14.60;;;6.30;;
56242;SDS011;42155;53.096;23.226;2023-02-04T07:03:40;14.57;;;5.47;;
56242;SDS011;42155;53.096;23.226;2023-02-04T07:05:41;14.40;;;5.32;;
56242;SDS011;42155;53.096;23.226;2023-02-04T07:07:41;10.82;;;4.97;;
56242;SDS011;42155;53.096;23.226;2023-02-04T07:09:41;8.77;;;3.08;;
56242;SDS011;42155;53.096;23.226;2023-02-04T07:11:42;8.48;;;3.72;;
56242;SDS011;42155;53.096;23.226;2023-02-04T07:13:42;10.13;;;4.15;;
56242;SDS011;42155;53.096;23.226;2023-02-04T07:15:42;10.13;;;3.95;;
56242;SDS011;42155;53.096;23.226;2023-02-04T07:17:43;11.20;;;4.75;;
56242;SDS011;42155;53.096;23.226;2023-02-04T07:19:43;8.80;;;3.92;;
56242;SDS011;42155;53.096;23.226;2023-02-04T07:21:43;10.23;;;4.50;;
56242;SDS011;42155;53.096;23.226;2023-02-04T07:23:44;8.23;;;3.78;;
56242;SDS011;42155;53.096;23.226;2023-02-04T07:25:44;10.48;;;4.45;;
56242;SDS011;42155;53.096;23.226;2023-02-04T07:27:44;7.53;;;4.25;;
56242;SDS011;42155;53.096;23.226;2023-02-04T07:29:45;9.13;;;4.35;;
56242;SDS011;42155;53.096;23.226;2023-02-04T07:31:45;6.43;;;3.63;;
56242;SDS011;42155;53.096;23.226;2023-02-04T07:33:46;7.10;;;3.60;;
56242;SDS011;42155;53.096;23.226;2023-02-04T07:35:46;9.52;;;4.22;;
56242;SDS011;42155;53.096;23.226;2023-02-04T07:37:47;10.02;;;3.97;;
56242;SDS011;42155;53.096;23.226;2023-02-04T07:39:47;10.15;;;4.35;;
56242;SDS011;42155;53.096;23.226;2023-02-04T07:41:47;9.02;;;4.43;;
56242;SDS011;42155;53.096;23.226;2023-02-04T07:43:47;14.23;;;4.97;;
56242;SDS011;42155;53.096;23.226;2023-02-04T07:45:48;12.63;;;5.35;;
56242;SDS011;42155;53.096;23.226;2023-02-04T07:47:48;8.35;;;4.43;;
56242;SDS011;42155;53.096;23.226;2023-02-04T07:49:49;10.00;;;3.95;;
56242;SDS011;42155;53.096;23.226;2023-02-04T07:51:49;9.98;;;4.20;;
56242;SDS011;42155;53.096;23.226;2023-02-04T07:53:49;9.63;;;4.63;;
56242;SDS011;42155;53.096;23.226;2023-02-04T07:55:49;8.20;;;4.03;;
56242;SDS011;42155;53.096;23.226;2023-02-04T07:57:50;10.65;;;4.75;;
56242;SDS011;42155;53.096;23.226;2023-02-04T07:59:50;6.88;;;3.53;;
56242;SDS011;42155;53.096;23.226;2023-02-04T08:01:50;9.70;;;4.03;;
56242;SDS011;42155;53.096;23.226;2023-02-04T08:03:51;6.82;;;3.55;;
56242;SDS011;42155;53.096;23.226;2023-02-04T08:05:51;11.57;;;4.53;;
56242;SDS011;42155;53.096;23.226;2023-02-04T08:07:52;7.82;;;4.20;;
56242;SDS011;42155;53.096;23.226;2023-02-04T08:09:53;11.63;;;4.75;;
56242;SDS011;42155;53.096;23.226;2023-02-04T08:11:53;8.65;;;4.03;;
56242;SDS011;42155;53.096;23.226;2023-02-04T08:13:53;10.43;;;4.38;;
56242;SDS011;42155;53.096;23.226;2023-02-04T08:15:54;10.57;;;4.40;;
56242;SDS011;42155;53.096;23.226;2023-02-04T08:17:54;8.95;;;3.65;;
56242;SDS011;42155;53.096;23.226;2023-02-04T08:19:55;7.15;;;3.35;;
56242;SDS011;42155;53.096;23.226;2023-02-04T08:21:55;8.80;;;4.43;;
56242;SDS011;42155;53.096;23.226;2023-02-04T08:23:56;9.35;;;4.53;;
56242;SDS011;42155;53.096;23.226;2023-02-04T08:25:56;12.73;;;5.28;;
56242;SDS011;42155;53.096;23.226;2023-02-04T08:27:56;14.05;;;4.57;;
56242;SDS011;42155;53.096;23.226;2023-02-04T08:29:57;11.30;;;4.22;;
56242;SDS011;42155;53.096;23.226;2023-02-04T08:31:57;9.25;;;3.92;;
56242;SDS011;42155;53.096;23.226;2023-02-04T08:33:57;10.40;;;4.18;;
56242;SDS011;42155;53.096;23.226;2023-02-04T08:35:58;8.10;;;4.22;;
56242;SDS011;42155;53.096;23.226;2023-02-04T08:37:58;10.10;;;4.68;;
56242;SDS011;42155;53.096;23.226;2023-02-04T08:39:58;9.73;;;4.32;;
56242;SDS011;42155;53.096;23.226;2023-02-04T08:41:59;8.23;;;3.67;;
56242;SDS011;42155;53.096;23.226;2023-02-04T08:43:59;7.63;;;3.35;;
56242;SDS011;42155;53.096;23.226;2023-02-04T08:45:59;8.07;;;3.55;;
56242;SDS011;42155;53.096;23.226;2023-02-04T08:48:00;9.50;;;3.92;;
56242;SDS011;42155;53.096;23.226;2023-02-04T08:50:00;13.85;;;4.47;;
56242;SDS011;42155;53.096;23.226;2023-02-04T08:52:01;7.38;;;3.42;;
56242;SDS011;42155;53.096;23.226;2023-02-04T08:54:01;7.05;;;3.40;;
56242;SDS011;42155;53.096;23.226;2023-02-04T08:56:02;11.10;;;4.60;;
56242;SDS011;42155;53.096;23.226;2023-02-04T08:58:02;11.93;;;4.68;;
56242;SDS011;42155;53.096;23.226;2023-02-04T09:00:03;11.55;;;4.30;;
56242;SDS011;42155;53.096;23.226;2023-02-04T09:02:03;13.63;;;4.80;;
56242;SDS011;42155;53.096;23.226;2023-02-04T09:04:04;12.80;;;5.28;;
56242;SDS011;42155;53.096;23.226;2023-02-04T09:06:05;9.93;;;5.00;;
56242;SDS011;42155;53.096;23.226;2023-02-04T09:08:06;10.27;;;5.13;;
56242;SDS011;42155;53.096;23.226;2023-02-04T09:10:06;8.65;;;3.92;;
56242;SDS011;42155;53.096;23.226;2023-02-04T09:12:07;5.55;;;3.45;;
56242;SDS011;42155;53.096;23.226;2023-02-04T09:14:07;7.40;;;3.67;;
56242;SDS011;42155;53.096;23.226;2023-02-04T09:16:08;5.60;;;3.05;;
56242;SDS011;42155;53.096;23.226;2023-02-04T09:18:08;5.97;;;2.70;;
56242;SDS011;42155;53.096;23.226;2023-02-04T09:20:09;7.35;;;3.97;;
56242;SDS011;42155;53.096;23.226;2023-02-04T09:22:10;7.82;;;3.80;;
56242;SDS011;42155;53.096;23.226;2023-02-04T09:24:10;7.72;;;3.17;;
56242;SDS011;42155;53.096;23.226;2023-02-04T09:26:10;8.98;;;3.92;;
56242;SDS011;42155;53.096;23.226;2023-02-04T09:28:11;6.55;;;3.10;;
56242;SDS011;42155;53.096;23.226;2023-02-04T09:30:12;6.32;;;3.22;;
56242;SDS011;42155;53.096;23.226;2023-02-04T09:32:13;9.95;;;3.38;;
56242;SDS011;42155;53.096;23.226;2023-02-04T09:34:13;8.05;;;3.58;;
56242;SDS011;42155;53.096;23.226;2023-02-04T09:36:14;8.77;;;4.18;;
56242;SDS011;42155;53.096;23.226;2023-02-04T09:38:14;10.55;;;4.30;;
56242;SDS011;42155;53.096;23.226;2023-02-04T09:40:16;5.85;;;3.10;;
56242;SDS011;42155;53.096;23.226;2023-02-04T09:42:17;6.50;;;3.17;;
56242;SDS011;42155;53.096;23.226;2023-02-04T09:44:19;8.57;;;3.22;;
56242;SDS011;42155;53.096;23.226;2023-02-04T09:46:22;11.48;;;4.10;;
56242;SDS011;42155;53.096;23.226;2023-02-04T09:48:24;10.65;;;3.80;;
56242;SDS011;42155;53.096;23.226;2023-02-04T09:50:26;10.95;;;4.57;;
56242;SDS011;42155;53.096;23.226;2023-02-04T09:52:27;14.43;;;5.65;;
56242;SDS011;42155;53.096;23.226;2023-02-04T09:54:28;6.70;;;3.30;;
56242;SDS011;42155;53.096;23.226;2023-02-04T09:56:28;7.28;;;3.13;;
56242;SDS011;42155;53.096;23.226;2023-02-04T09:58:31;8.02;;;3.85;;
56242;SDS011;42155;53.096;23.226;2023-02-04T10:00:33;6.85;;;3.15;;
56242;SDS011;42155;53.096;23.226;2023-02-04T10:02:33;10.88;;;4.18;;
56242;SDS011;42155;53.096;23.226;2023-02-04T10:04:34;9.68;;;3.85;;
56242;SDS011;42155;53.096;23.226;2023-02-04T10:06:36;6.28;;;2.95;;
56242;SDS011;42155;53.096;23.226;2023-02-04T10:08:36;6.05;;;3.10;;
56242;SDS011;42155;53.096;23.226;2023-02-04T10:10:36;7.80;;;3.55;;
56242;SDS011;42155;53.096;23.226;2023-02-04T10:12:38;7.43;;;3.42;;
56242;SDS011;42155;53.096;23.226;2023-02-04T10:14:39;6.45;;;3.13;;
56242;SDS011;42155;53.096;23.226;2023-02-04T10:16:39;10.70;;;4.57;;
56242;SDS011;42155;53.096;23.226;2023-02-04T10:18:41;9.63;;;4.30;;
56242;SDS011;42155;53.096;23.226;2023-02-04T10:20:43;7.80;;;3.60;;
56242;SDS011;42155;53.096;23.226;2023-02-04T10:22:43;7.82;;;3.47;;
56242;SDS011;42155;53.096;23.226;2023-02-04T10:24:45;9.18;;;4.63;;
56242;SDS011;42155;53.096;23.226;2023-02-04T10:26:46;9.55;;;4.43;;
56242;SDS011;42155;53.096;23.226;2023-02-04T10:28:46;11.07;;;4.38;;
56242;SDS011;42155;53.096;23.226;2023-02-04T10:30:46;9.55;;;4.43;;
56242;SDS011;42155;53.096;23.226;2023-02-04T10:32:47;12.38;;;5.50;;
56242;SDS011;42155;53.096;23.226;2023-02-04T10:34:48;13.98;;;5.63;;
56242;SDS011;42155;53.096;23.226;2023-02-04T10:36:49;10.68;;;4.85;;
56242;SDS011;42155;53.096;23.226;2023-02-04T10:38:58;8.95;;;3.58;;
56242;SDS011;42155;53.096;23.226;2023-02-04T10:41:11;11.48;;;4.35;;
56242;SDS011;42155;53.096;23.226;2023-02-04T10:43:17;7.63;;;3.50;;
56242;SDS011;42155;53.096;23.226;2023-02-04T10:45:24;10.50;;;4.60;;
56242;SDS011;42155;53.096;23.226;2023-02-04T10:47:27;9.90;;;4.60;;
56242;SDS011;42155;53.096;23.226;2023-02-04T10:49:28;9.00;;;4.15;;
56242;SDS011;42155;53.096;23.226;2023-02-04T10:51:29;8.18;;;2.78;;
56242;SDS011;42155;53.096;23.226;2023-02-04T10:53:30;8.95;;;3.63;;
56242;SDS011;42155;53.096;23.226;2023-02-04T10:55:30;10.48;;;3.88;;
56242;SDS011;42155;53.096;23.226;2023-02-04T10:57:30;8.40;;;4.07;;
56242;SDS011;42155;53.096;23.226;2023-02-04T10:59:37;9.52;;;3.78;;
56242;SDS011;42155;53.096;23.226;2023-02-04T11:01:37;8.05;;;4.03;;
56242;SDS011;42155;53.096;23.226;2023-02-04T11:03:38;9.38;;;3.80;;
56242;SDS011;42155;53.096;23.226;2023-02-04T11:05:39;5.50;;;2.50;;
56242;SDS011;42155;53.096;23.226;2023-02-04T11:07:40;4.80;;;2.83;;
56242;SDS011;42155;53.096;23.226;2023-02-04T11:09:40;8.07;;;3.83;;
56242;SDS011;42155;53.096;23.226;2023-02-04T11:11:46;9.50;;;3.03;;
56242;SDS011;42155;53.096;23.226;2023-02-04T11:16:05;7.00;;;3.97;;
56242;SDS011;42155;53.096;23.226;2023-02-04T11:20:29;11.30;;;4.25;;
56242;SDS011;42155;53.096;23.226;2023-02-04T11:22:36;9.07;;;3.50;;
56242;SDS011;42155;53.096;23.226;2023-02-04T11:24:41;8.45;;;3.92;;
56242;SDS011;42155;53.096;23.226;2023-02-04T11:26:45;7.53;;;3.45;;
56242;SDS011;42155;53.096;23.226;2023-02-04T11:30:57;7.57;;;3.75;;
56242;SDS011;42155;53.096;23.226;2023-02-04T11:33:02;7.75;;;3.28;;
56242;SDS011;42155;53.096;23.226;2023-02-04T11:35:06;7.78;;;3.67;;
56242;SDS011;42155;53.096;23.226;2023-02-04T11:37:12;10.18;;;3.78;;
56242;SDS011;42155;53.096;23.226;2023-02-04T11:39:16;9.93;;;3.53;;
56242;SDS011;42155;53.096;23.226;2023-02-04T11:41:26;6.50;;;2.88;;
56242;SDS011;42155;53.096;23.226;2023-02-04T11:43:31;7.10;;;3.25;;
56242;SDS011;42155;53.096;23.226;2023-02-04T11:45:33;9.02;;;3.78;;
56242;SDS011;42155;53.096;23.226;2023-02-04T11:47:35;8.25;;;4.22;;
56242;SDS011;42155;53.096;23.226;2023-02-04T11:49:36;9.82;;;3.58;;
56242;SDS011;42155;53.096;23.226;2023-02-04T11:51:36;6.05;;;3.25;;
56242;SDS011;42155;53.096;23.226;2023-02-04T11:53:36;5.88;;;3.17;;
56242;SDS011;42155;53.096;23.226;2023-02-04T11:55:42;6.68;;;3.63;;
56242;SDS011;42155;53.096;23.226;2023-02-04T11:57:44;9.30;;;4.47;;
56242;SDS011;42155;53.096;23.226;2023-02-04T11:59:45;7.57;;;3.45;;
56242;SDS011;42155;53.096;23.226;2023-02-04T12:01:45;5.95;;;2.55;;
56242;SDS011;42155;53.096;23.226;2023-02-04T12:03:47;6.05;;;3.05;;